Valley City, ND

5:16 PM CST on February 07, 2016 (GMT -0600)
Valley City | | Change Station
CLOSE
Current Station
Airport
Location: Valley City,
Elevation: 1401 ft
Nearby Weather Stations
Active Advisory: High Wind Warning

Elev 1401 ft 46.94 °N, 98.02 °W | Updated 21 minutes ago

Snow
Snow
21 °F
Feels Like 4 °F
N
26
Wind Variable Wind from North
Gusts 39 mph

Today
High -- | Low -- °F
--% Chance of Precip.
Yesterday
High -- | Low -- °F
Precip. -- in
Pressure 29.92 in
Visibility 10.0 miles
Clouds Scattered Clouds 3700 ft
Overcast 5000 ft
Windchill 4 °F
Dew Point 12 °F
Humidity 68%
Rainfall 2.78 in
Snow Depth Not available.
7:49 AM 5:43 PM
Waning Crescent, 1% visible
METAR KBAC 072255Z AUTO 35023G34KT 10SM -SN SCT037 OVC050 M06/M11 A2992 RMK AO2 P0028
Pressure 29.92 in
Visibility 10.0 miles
Clouds Scattered Clouds 3700 ft
Overcast 5000 ft
Windchill 4 °F
Dew Point 12 °F
Humidity 68%
Rainfall 2.78 in
Snow Depth Not available.
7:49 AM 5:43 PM
Waning Crescent, 1% visible
METAR KBAC 072255Z AUTO 35023G34KT 10SM -SN SCT037 OVC050 M06/M11 A2992 RMK AO2 P0028

10-Day Weather Forecast

Almanac

Astronomy

Feb. 07, 2016 Rise Set
Actual Time
Civil Twilight
Nautical Twilight
Astronomical Twilight
Moon
Length of Visible Light
Length of Day
Tomorrow will be .
, % of the Moon is Illuminated

Today's Extremes

State Highs State Lows

Community

WunderPhotos

Upload Photos

1,891,325 photos uploaded!

WunderBlog® & News

Nearby

Air Quality

  Air Quality AQ Index Pollutant
Not available.

Snow Depth

Station Depth Elevation

Earthquake Activity

City Distance Mag. Time & Date
Minimum magnitude displayed is 2.5.

Coastal Water Temperatures

Place Temperature

Stations

Nearby Weather Stations

Station Location Temp. Windchill Dew Point Humidity Wind Precip. Elev Updated Type
                   

Watches & Warnings

High Wind Warning
Issued: 10:06 AM CST Feb. 7, 2016 – National Weather Service

... High Wind Warning in effect until 6 am CST Monday...

The National Weather Service in Grand Forks has issued a High
Wind Warning... which is in effect until 6 am CST Monday.

* Winds... northwest 35 to 45 mph with gusts up to 60 mph.

* Timing... winds will increase through the morning and continue
into tonight.

* Impacts... isolated snow showers combined with the strong wind
will reduce visibility in open country. Visibility may be
briefly reduced to near zero.

Precautionary/preparedness actions...

A High Wind Warning means a hazardous high wind event is expected
or occurring. Sustained wind speeds of at least 40 mph or gusts
of 58 mph or more can lead to property damage.